sensor_id;sensor_type;location;lat;lon;timestamp;P1;durP1;ratioP1;P2;durP2;ratioP2
81908;SDS011;71372;43.514;1.512;2023-12-28T00:01:14;16.73;;;8.00;;
81908;SDS011;71372;43.514;1.512;2023-12-28T00:03:40;14.43;;;7.72;;
81908;SDS011;71372;43.514;1.512;2023-12-28T00:06:06;15.55;;;8.30;;
81908;SDS011;71372;43.514;1.512;2023-12-28T00:08:32;18.20;;;7.32;;
81908;SDS011;71372;43.514;1.512;2023-12-28T00:10:58;18.52;;;8.48;;
81908;SDS011;71372;43.514;1.512;2023-12-28T00:13:24;19.70;;;8.95;;
81908;SDS011;71372;43.514;1.512;2023-12-28T00:15:50;22.25;;;8.40;;
81908;SDS011;71372;43.514;1.512;2023-12-28T00:18:16;22.52;;;9.13;;
81908;SDS011;71372;43.514;1.512;2023-12-28T00:20:42;27.10;;;10.45;;
81908;SDS011;71372;43.514;1.512;2023-12-28T00:23:08;30.52;;;11.68;;
81908;SDS011;71372;43.514;1.512;2023-12-28T00:25:34;27.70;;;11.45;;
81908;SDS011;71372;43.514;1.512;2023-12-28T00:28:00;23.95;;;10.07;;
81908;SDS011;71372;43.514;1.512;2023-12-28T00:30:26;30.60;;;10.23;;
81908;SDS011;71372;43.514;1.512;2023-12-28T00:32:51;26.77;;;9.05;;
81908;SDS011;71372;43.514;1.512;2023-12-28T00:35:17;26.38;;;9.30;;
81908;SDS011;71372;43.514;1.512;2023-12-28T00:37:43;30.15;;;10.88;;
81908;SDS011;71372;43.514;1.512;2023-12-28T00:40:09;30.27;;;11.95;;
81908;SDS011;71372;43.514;1.512;2023-12-28T00:42:36;28.63;;;11.30;;
81908;SDS011;71372;43.514;1.512;2023-12-28T00:45:02;25.08;;;10.95;;
81908;SDS011;71372;43.514;1.512;2023-12-28T00:47:28;22.67;;;9.55;;
81908;SDS011;71372;43.514;1.512;2023-12-28T00:49:54;20.10;;;9.88;;
81908;SDS011;71372;43.514;1.512;2023-12-28T00:52:20;24.35;;;8.48;;
81908;SDS011;71372;43.514;1.512;2023-12-28T00:54:46;23.02;;;9.60;;
81908;SDS011;71372;43.514;1.512;2023-12-28T00:57:11;27.95;;;8.63;;
81908;SDS011;71372;43.514;1.512;2023-12-28T00:59:37;22.45;;;8.98;;
81908;SDS011;71372;43.514;1.512;2023-12-28T01:02:03;23.40;;;8.40;;
81908;SDS011;71372;43.514;1.512;2023-12-28T01:04:29;23.33;;;8.70;;
81908;SDS011;71372;43.514;1.512;2023-12-28T01:06:55;24.45;;;9.10;;
81908;SDS011;71372;43.514;1.512;2023-12-28T01:09:21;22.00;;;8.40;;
81908;SDS011;71372;43.514;1.512;2023-12-28T01:11:47;25.95;;;9.07;;
81908;SDS011;71372;43.514;1.512;2023-12-28T01:14:13;21.70;;;8.30;;
81908;SDS011;71372;43.514;1.512;2023-12-28T01:16:39;20.40;;;9.18;;
81908;SDS011;71372;43.514;1.512;2023-12-28T01:19:05;23.38;;;9.30;;
81908;SDS011;71372;43.514;1.512;2023-12-28T01:21:32;21.63;;;8.80;;
81908;SDS011;71372;43.514;1.512;2023-12-28T01:23:58;21.15;;;8.23;;
81908;SDS011;71372;43.514;1.512;2023-12-28T01:26:23;17.10;;;9.00;;
81908;SDS011;71372;43.514;1.512;2023-12-28T01:28:49;17.27;;;7.78;;
81908;SDS011;71372;43.514;1.512;2023-12-28T01:31:15;20.92;;;7.95;;
81908;SDS011;71372;43.514;1.512;2023-12-28T01:33:41;18.02;;;7.50;;
81908;SDS011;71372;43.514;1.512;2023-12-28T01:36:19;17.45;;;6.63;;
81908;SDS011;71372;43.514;1.512;2023-12-28T01:38:46;16.65;;;7.22;;
81908;SDS011;71372;43.514;1.512;2023-12-28T01:41:12;17.88;;;6.88;;
81908;SDS011;71372;43.514;1.512;2023-12-28T01:43:39;15.02;;;7.43;;
81908;SDS011;71372;43.514;1.512;2023-12-28T01:46:05;15.65;;;6.88;;
81908;SDS011;71372;43.514;1.512;2023-12-28T01:48:34;13.52;;;6.43;;
81908;SDS011;71372;43.514;1.512;2023-12-28T01:51:00;15.27;;;7.00;;
81908;SDS011;71372;43.514;1.512;2023-12-28T01:53:28;16.65;;;6.82;;
81908;SDS011;71372;43.514;1.512;2023-12-28T01:55:54;19.15;;;6.82;;
81908;SDS011;71372;43.514;1.512;2023-12-28T01:58:21;14.68;;;6.40;;
81908;SDS011;71372;43.514;1.512;2023-12-28T02:00:49;21.77;;;7.97;;
81908;SDS011;71372;43.514;1.512;2023-12-28T02:03:15;20.55;;;7.82;;
81908;SDS011;71372;43.514;1.512;2023-12-28T02:05:41;18.73;;;8.02;;
81908;SDS011;71372;43.514;1.512;2023-12-28T02:08:08;18.90;;;8.05;;
81908;SDS011;71372;43.514;1.512;2023-12-28T02:10:34;15.50;;;7.53;;
81908;SDS011;71372;43.514;1.512;2023-12-28T02:13:00;21.75;;;9.00;;
81908;SDS011;71372;43.514;1.512;2023-12-28T02:15:26;19.35;;;8.18;;
81908;SDS011;71372;43.514;1.512;2023-12-28T02:17:57;16.23;;;7.05;;
81908;SDS011;71372;43.514;1.512;2023-12-28T02:20:27;18.83;;;7.70;;
81908;SDS011;71372;43.514;1.512;2023-12-28T02:22:55;16.17;;;7.53;;
81908;SDS011;71372;43.514;1.512;2023-12-28T02:25:22;14.45;;;7.10;;
81908;SDS011;71372;43.514;1.512;2023-12-28T02:27:48;14.35;;;6.95;;
81908;SDS011;71372;43.514;1.512;2023-12-28T02:30:19;15.65;;;7.38;;
81908;SDS011;71372;43.514;1.512;2023-12-28T02:38:19;12.70;;;6.85;;
81908;SDS011;71372;43.514;1.512;2023-12-28T02:40:46;11.15;;;6.65;;
81908;SDS011;71372;43.514;1.512;2023-12-28T02:43:13;13.85;;;7.20;;
81908;SDS011;71372;43.514;1.512;2023-12-28T02:45:39;9.57;;;5.90;;
81908;SDS011;71372;43.514;1.512;2023-12-28T02:48:05;10.50;;;5.97;;
81908;SDS011;71372;43.514;1.512;2023-12-28T02:50:32;15.93;;;6.45;;
81908;SDS011;71372;43.514;1.512;2023-12-28T02:52:59;10.73;;;6.28;;
81908;SDS011;71372;43.514;1.512;2023-12-28T02:55:25;13.90;;;6.35;;
81908;SDS011;71372;43.514;1.512;2023-12-28T02:57:53;10.27;;;6.65;;
81908;SDS011;71372;43.514;1.512;2023-12-28T03:00:24;14.30;;;6.82;;
81908;SDS011;71372;43.514;1.512;2023-12-28T03:02:51;12.73;;;6.22;;
81908;SDS011;71372;43.514;1.512;2023-12-28T03:05:17;10.88;;;6.15;;
81908;SDS011;71372;43.514;1.512;2023-12-28T03:07:43;11.63;;;6.65;;
81908;SDS011;71372;43.514;1.512;2023-12-28T03:10:09;12.13;;;6.30;;
81908;SDS011;71372;43.514;1.512;2023-12-28T03:12:38;13.43;;;6.60;;
81908;SDS011;71372;43.514;1.512;2023-12-28T03:15:04;13.90;;;6.97;;
81908;SDS011;71372;43.514;1.512;2023-12-28T03:17:31;16.27;;;7.40;;
81908;SDS011;71372;43.514;1.512;2023-12-28T03:19:58;18.60;;;7.28;;
81908;SDS011;71372;43.514;1.512;2023-12-28T03:22:25;18.55;;;7.90;;
81908;SDS011;71372;43.514;1.512;2023-12-28T03:24:51;18.58;;;7.80;;
81908;SDS011;71372;43.514;1.512;2023-12-28T03:27:17;22.88;;;8.25;;
81908;SDS011;71372;43.514;1.512;2023-12-28T03:29:43;20.73;;;8.60;;
81908;SDS011;71372;43.514;1.512;2023-12-28T03:32:09;24.00;;;9.55;;
81908;SDS011;71372;43.514;1.512;2023-12-28T03:34:35;28.70;;;10.13;;
81908;SDS011;71372;43.514;1.512;2023-12-28T03:37:01;27.30;;;10.07;;
81908;SDS011;71372;43.514;1.512;2023-12-28T03:39:28;28.25;;;9.95;;
81908;SDS011;71372;43.514;1.512;2023-12-28T03:41:53;24.52;;;9.68;;
81908;SDS011;71372;43.514;1.512;2023-12-28T03:44:20;29.02;;;10.30;;
81908;SDS011;71372;43.514;1.512;2023-12-28T03:46:47;32.70;;;10.80;;
81908;SDS011;71372;43.514;1.512;2023-12-28T03:49:17;25.95;;;9.95;;
81908;SDS011;71372;43.514;1.512;2023-12-28T03:51:44;29.52;;;11.15;;
81908;SDS011;71372;43.514;1.512;2023-12-28T03:54:10;30.90;;;10.75;;
81908;SDS011;71372;43.514;1.512;2023-12-28T03:56:37;37.03;;;11.52;;
81908;SDS011;71372;43.514;1.512;2023-12-28T04:01:31;32.72;;;11.25;;
81908;SDS011;71372;43.514;1.512;2023-12-28T04:03:57;31.83;;;11.40;;
81908;SDS011;71372;43.514;1.512;2023-12-28T04:06:23;34.85;;;12.15;;
81908;SDS011;71372;43.514;1.512;2023-12-28T04:08:49;43.05;;;11.63;;
81908;SDS011;71372;43.514;1.512;2023-12-28T04:11:15;33.88;;;12.93;;
81908;SDS011;71372;43.514;1.512;2023-12-28T04:13:41;31.13;;;11.60;;
81908;SDS011;71372;43.514;1.512;2023-12-28T04:16:07;38.88;;;11.80;;
81908;SDS011;71372;43.514;1.512;2023-12-28T04:18:35;33.45;;;12.07;;
81908;SDS011;71372;43.514;1.512;2023-12-28T04:21:00;41.05;;;12.30;;
81908;SDS011;71372;43.514;1.512;2023-12-28T04:23:26;31.70;;;10.77;;
81908;SDS011;71372;43.514;1.512;2023-12-28T04:25:52;30.35;;;10.68;;
81908;SDS011;71372;43.514;1.512;2023-12-28T04:28:18;35.72;;;11.57;;
81908;SDS011;71372;43.514;1.512;2023-12-28T04:30:44;33.95;;;11.25;;
81908;SDS011;71372;43.514;1.512;2023-12-28T04:33:10;33.13;;;11.18;;
81908;SDS011;71372;43.514;1.512;2023-12-28T04:35:36;34.17;;;11.10;;
81908;SDS011;71372;43.514;1.512;2023-12-28T04:38:02;30.98;;;10.40;;
81908;SDS011;71372;43.514;1.512;2023-12-28T04:40:28;35.67;;;11.55;;
81908;SDS011;71372;43.514;1.512;2023-12-28T04:42:55;31.63;;;10.98;;
81908;SDS011;71372;43.514;1.512;2023-12-28T04:45:21;32.95;;;11.80;;
81908;SDS011;71372;43.514;1.512;2023-12-28T04:47:48;38.13;;;12.00;;
81908;SDS011;71372;43.514;1.512;2023-12-28T04:50:13;27.15;;;10.25;;
81908;SDS011;71372;43.514;1.512;2023-12-28T04:52:39;29.63;;;10.73;;
81908;SDS011;71372;43.514;1.512;2023-12-28T04:55:06;31.05;;;11.02;;
81908;SDS011;71372;43.514;1.512;2023-12-28T04:57:32;32.70;;;9.98;;
81908;SDS011;71372;43.514;1.512;2023-12-28T04:59:58;27.75;;;10.65;;
81908;SDS011;71372;43.514;1.512;2023-12-28T05:02:24;30.30;;;11.20;;
81908;SDS011;71372;43.514;1.512;2023-12-28T05:04:50;33.45;;;10.82;;
81908;SDS011;71372;43.514;1.512;2023-12-28T05:07:16;32.15;;;10.52;;
81908;SDS011;71372;43.514;1.512;2023-12-28T05:09:42;26.25;;;10.30;;
81908;SDS011;71372;43.514;1.512;2023-12-28T05:12:08;27.00;;;10.30;;
81908;SDS011;71372;43.514;1.512;2023-12-28T05:14:33;24.55;;;9.40;;
81908;SDS011;71372;43.514;1.512;2023-12-28T05:16:59;20.98;;;8.77;;
81908;SDS011;71372;43.514;1.512;2023-12-28T05:19:25;21.15;;;9.70;;
81908;SDS011;71372;43.514;1.512;2023-12-28T05:21:51;22.40;;;9.20;;
81908;SDS011;71372;43.514;1.512;2023-12-28T05:24:17;23.83;;;9.25;;
81908;SDS011;71372;43.514;1.512;2023-12-28T05:26:43;22.10;;;8.52;;
81908;SDS011;71372;43.514;1.512;2023-12-28T05:29:09;19.58;;;8.40;;
81908;SDS011;71372;43.514;1.512;2023-12-28T05:31:35;18.80;;;8.82;;
81908;SDS011;71372;43.514;1.512;2023-12-28T05:34:01;17.63;;;7.75;;
81908;SDS011;71372;43.514;1.512;2023-12-28T05:36:27;24.50;;;8.05;;
81908;SDS011;71372;43.514;1.512;2023-12-28T05:38:54;14.32;;;7.20;;
81908;SDS011;71372;43.514;1.512;2023-12-28T05:41:20;15.82;;;8.00;;
81908;SDS011;71372;43.514;1.512;2023-12-28T05:43:46;17.38;;;6.85;;
81908;SDS011;71372;43.514;1.512;2023-12-28T05:46:12;14.85;;;6.80;;
81908;SDS011;71372;43.514;1.512;2023-12-28T05:48:38;15.93;;;6.28;;
81908;SDS011;71372;43.514;1.512;2023-12-28T05:51:04;12.95;;;6.47;;
81908;SDS011;71372;43.514;1.512;2023-12-28T05:53:30;14.90;;;6.45;;
81908;SDS011;71372;43.514;1.512;2023-12-28T05:55:56;11.43;;;6.63;;
81908;SDS011;71372;43.514;1.512;2023-12-28T05:58:22;12.88;;;6.53;;
81908;SDS011;71372;43.514;1.512;2023-12-28T06:00:48;14.40;;;6.30;;
81908;SDS011;71372;43.514;1.512;2023-12-28T06:03:14;15.10;;;7.15;;
81908;SDS011;71372;43.514;1.512;2023-12-28T06:05:40;13.02;;;6.10;;
81908;SDS011;71372;43.514;1.512;2023-12-28T06:08:06;15.80;;;6.63;;
81908;SDS011;71372;43.514;1.512;2023-12-28T06:10:32;12.07;;;6.45;;
81908;SDS011;71372;43.514;1.512;2023-12-28T06:12:58;11.73;;;5.75;;
81908;SDS011;71372;43.514;1.512;2023-12-28T06:15:24;11.15;;;6.78;;
81908;SDS011;71372;43.514;1.512;2023-12-28T06:17:50;10.18;;;3.92;;
81908;SDS011;71372;43.514;1.512;2023-12-28T06:20:16;14.50;;;7.03;;
81908;SDS011;71372;43.514;1.512;2023-12-28T06:22:42;14.93;;;7.05;;
81908;SDS011;71372;43.514;1.512;2023-12-28T06:25:10;15.70;;;7.78;;
81908;SDS011;71372;43.514;1.512;2023-12-28T06:27:37;13.10;;;5.85;;
81908;SDS011;71372;43.514;1.512;2023-12-28T06:30:03;11.73;;;6.53;;
81908;SDS011;71372;43.514;1.512;2023-12-28T06:32:29;8.90;;;5.85;;
81908;SDS011;71372;43.514;1.512;2023-12-28T06:34:55;11.70;;;6.70;;
81908;SDS011;71372;43.514;1.512;2023-12-28T06:37:21;11.55;;;5.95;;
81908;SDS011;71372;43.514;1.512;2023-12-28T06:39:47;10.27;;;6.22;;
81908;SDS011;71372;43.514;1.512;2023-12-28T06:42:14;10.88;;;5.93;;
81908;SDS011;71372;43.514;1.512;2023-12-28T06:44:40;9.82;;;5.93;;
81908;SDS011;71372;43.514;1.512;2023-12-28T06:47:06;12.13;;;6.20;;
81908;SDS011;71372;43.514;1.512;2023-12-28T06:49:32;13.60;;;7.05;;
81908;SDS011;71372;43.514;1.512;2023-12-28T06:51:58;10.07;;;6.47;;
81908;SDS011;71372;43.514;1.512;2023-12-28T06:54:24;9.45;;;6.10;;
81908;SDS011;71372;43.514;1.512;2023-12-28T06:56:49;8.55;;;6.35;;
81908;SDS011;71372;43.514;1.512;2023-12-28T06:59:17;11.88;;;7.47;;
81908;SDS011;71372;43.514;1.512;2023-12-28T07:01:43;12.70;;;6.45;;
81908;SDS011;71372;43.514;1.512;2023-12-28T07:04:13;11.43;;;6.68;;
81908;SDS011;71372;43.514;1.512;2023-12-28T07:06:39;15.07;;;6.57;;
81908;SDS011;71372;43.514;1.512;2023-12-28T07:09:05;15.75;;;6.07;;
81908;SDS011;71372;43.514;1.512;2023-12-28T07:11:32;10.05;;;6.47;;
81908;SDS011;71372;43.514;1.512;2023-12-28T07:13:58;10.52;;;6.43;;
81908;SDS011;71372;43.514;1.512;2023-12-28T07:16:24;13.25;;;6.22;;
81908;SDS011;71372;43.514;1.512;2023-12-28T07:18:50;9.23;;;5.80;;
81908;SDS011;71372;43.514;1.512;2023-12-28T07:21:16;9.93;;;6.18;;
81908;SDS011;71372;43.514;1.512;2023-12-28T07:23:42;12.77;;;6.53;;
81908;SDS011;71372;43.514;1.512;2023-12-28T07:26:08;10.95;;;7.20;;
81908;SDS011;71372;43.514;1.512;2023-12-28T07:28:34;10.23;;;6.78;;
81908;SDS011;71372;43.514;1.512;2023-12-28T07:31:00;11.48;;;7.18;;
81908;SDS011;71372;43.514;1.512;2023-12-28T07:33:26;9.45;;;5.63;;
81908;SDS011;71372;43.514;1.512;2023-12-28T07:35:52;10.77;;;6.50;;
81908;SDS011;71372;43.514;1.512;2023-12-28T07:38:18;13.90;;;6.40;;
81908;SDS011;71372;43.514;1.512;2023-12-28T07:40:44;15.93;;;6.63;;
81908;SDS011;71372;43.514;1.512;2023-12-28T07:43:10;14.48;;;6.55;;
81908;SDS011;71372;43.514;1.512;2023-12-28T07:45:36;12.52;;;5.88;;
81908;SDS011;71372;43.514;1.512;2023-12-28T07:48:04;10.60;;;6.20;;
81908;SDS011;71372;43.514;1.512;2023-12-28T07:50:30;10.27;;;5.88;;
81908;SDS011;71372;43.514;1.512;2023-12-28T07:52:56;10.45;;;5.15;;
81908;SDS011;71372;43.514;1.512;2023-12-28T07:55:22;12.07;;;6.28;;
81908;SDS011;71372;43.514;1.512;2023-12-28T07:57:48;8.77;;;6.20;;
81908;SDS011;71372;43.514;1.512;2023-12-28T08:00:14;8.80;;;5.10;;
81908;SDS011;71372;43.514;1.512;2023-12-28T08:02:40;11.15;;;5.78;;
81908;SDS011;71372;43.514;1.512;2023-12-28T08:05:06;10.57;;;5.72;;
81908;SDS011;71372;43.514;1.512;2023-12-28T08:07:32;9.25;;;5.60;;
81908;SDS011;71372;43.514;1.512;2023-12-28T08:09:59;8.13;;;4.90;;
81908;SDS011;71372;43.514;1.512;2023-12-28T08:12:25;7.20;;;4.75;;
81908;SDS011;71372;43.514;1.512;2023-12-28T08:14:53;8.35;;;4.60;;
81908;SDS011;71372;43.514;1.512;2023-12-28T08:17:20;8.10;;;5.78;;
81908;SDS011;71372;43.514;1.512;2023-12-28T08:19:46;9.25;;;5.43;;
81908;SDS011;71372;43.514;1.512;2023-12-28T08:22:11;8.13;;;5.00;;
81908;SDS011;71372;43.514;1.512;2023-12-28T08:24:37;8.30;;;5.68;;
81908;SDS011;71372;43.514;1.512;2023-12-28T08:27:03;10.85;;;6.05;;
81908;SDS011;71372;43.514;1.512;2023-12-28T08:29:29;10.02;;;6.18;;
81908;SDS011;71372;43.514;1.512;2023-12-28T08:31:55;9.77;;;5.53;;
81908;SDS011;71372;43.514;1.512;2023-12-28T08:34:21;8.02;;;4.93;;
81908;SDS011;71372;43.514;1.512;2023-12-28T08:36:47;7.70;;;5.05;;
81908;SDS011;71372;43.514;1.512;2023-12-28T08:39:13;8.70;;;4.82;;
81908;SDS011;71372;43.514;1.512;2023-12-28T08:41:39;8.27;;;4.40;;
81908;SDS011;71372;43.514;1.512;2023-12-28T08:44:05;8.07;;;4.60;;
81908;SDS011;71372;43.514;1.512;2023-12-28T08:46:31;6.93;;;4.40;;
81908;SDS011;71372;43.514;1.512;2023-12-28T08:48:57;8.52;;;4.80;;
81908;SDS011;71372;43.514;1.512;2023-12-28T08:51:23;6.40;;;4.53;;
81908;SDS011;71372;43.514;1.512;2023-12-28T08:53:49;7.97;;;4.90;;
81908;SDS011;71372;43.514;1.512;2023-12-28T08:56:21;9.45;;;5.38;;
81908;SDS011;71372;43.514;1.512;2023-12-28T08:58:48;7.40;;;4.28;;
81908;SDS011;71372;43.514;1.512;2023-12-28T09:01:24;6.93;;;4.07;;
81908;SDS011;71372;43.514;1.512;2023-12-28T09:03:55;9.70;;;4.13;;
81908;SDS011;71372;43.514;1.512;2023-12-28T09:06:21;6.32;;;4.53;;
81908;SDS011;71372;43.514;1.512;2023-12-28T09:08:49;9.88;;;4.38;;
81908;SDS011;71372;43.514;1.512;2023-12-28T09:11:16;7.07;;;4.53;;
81908;SDS011;71372;43.514;1.512;2023-12-28T09:13:43;6.82;;;3.95;;
81908;SDS011;71372;43.514;1.512;2023-12-28T09:16:12;7.85;;;4.07;;
81908;SDS011;71372;43.514;1.512;2023-12-28T09:18:40;6.50;;;4.22;;
81908;SDS011;71372;43.514;1.512;2023-12-28T09:21:07;6.50;;;3.80;;
81908;SDS011;71372;43.514;1.512;2023-12-28T09:23:35;6.65;;;5.05;;
81908;SDS011;71372;43.514;1.512;2023-12-28T09:26:02;8.15;;;4.28;;
81908;SDS011;71372;43.514;1.512;2023-12-28T09:28:29;11.15;;;5.40;;
81908;SDS011;71372;43.514;1.512;2023-12-28T09:30:55;6.53;;;4.60;;
81908;SDS011;71372;43.514;1.512;2023-12-28T09:33:21;6.97;;;4.40;;
81908;SDS011;71372;43.514;1.512;2023-12-28T09:35:47;9.27;;;4.60;;
81908;SDS011;71372;43.514;1.512;2023-12-28T09:38:14;6.53;;;4.35;;
81908;SDS011;71372;43.514;1.512;2023-12-28T09:40:43;6.80;;;4.40;;
81908;SDS011;71372;43.514;1.512;2023-12-28T09:43:17;10.23;;;5.35;;
81908;SDS011;71372;43.514;1.512;2023-12-28T09:45:48;8.13;;;4.82;;
81908;SDS011;71372;43.514;1.512;2023-12-28T09:48:15;8.70;;;4.80;;
81908;SDS011;71372;43.514;1.512;2023-12-28T09:50:43;9.68;;;5.00;;
81908;SDS011;71372;43.514;1.512;2023-12-28T09:53:23;7.68;;;4.07;;
81908;SDS011;71372;43.514;1.512;2023-12-28T09:55:50;8.15;;;4.88;;
81908;SDS011;71372;43.514;1.512;2023-12-28T09:58:19;10.52;;;5.43;;
81908;SDS011;71372;43.514;1.512;2023-12-28T10:00:47;10.02;;;4.65;;
81908;SDS011;71372;43.514;1.512;2023-12-28T10:03:14;9.82;;;4.18;;
81908;SDS011;71372;43.514;1.512;2023-12-28T10:05:41;6.32;;;4.30;;
81908;SDS011;71372;43.514;1.512;2023-12-28T10:08:08;7.03;;;4.40;;
81908;SDS011;71372;43.514;1.512;2023-12-28T10:10:34;7.63;;;4.63;;
81908;SDS011;71372;43.514;1.512;2023-12-28T10:13:00;7.90;;;4.60;;
81908;SDS011;71372;43.514;1.512;2023-12-28T10:15:27;9.80;;;5.20;;
81908;SDS011;71372;43.514;1.512;2023-12-28T10:17:53;8.27;;;4.93;;
81908;SDS011;71372;43.514;1.512;2023-12-28T10:20:19;8.60;;;5.03;;
81908;SDS011;71372;43.514;1.512;2023-12-28T10:22:45;9.90;;;4.97;;
81908;SDS011;71372;43.514;1.512;2023-12-28T10:25:11;8.10;;;5.07;;
81908;SDS011;71372;43.514;1.512;2023-12-28T10:27:40;9.70;;;4.90;;
81908;SDS011;71372;43.514;1.512;2023-12-28T10:30:09;7.28;;;4.70;;
81908;SDS011;71372;43.514;1.512;2023-12-28T10:32:39;7.85;;;5.07;;
81908;SDS011;71372;43.514;1.512;2023-12-28T10:35:05;9.93;;;5.15;;
81908;SDS011;71372;43.514;1.512;2023-12-28T10:37:32;10.00;;;5.20;;
81908;SDS011;71372;43.514;1.512;2023-12-28T10:40:03;8.75;;;5.80;;
81908;SDS011;71372;43.514;1.512;2023-12-28T10:42:32;9.32;;;5.00;;
81908;SDS011;71372;43.514;1.512;2023-12-28T10:45:02;11.25;;;5.45;;
81908;SDS011;71372;43.514;1.512;2023-12-28T10:47:33;8.55;;;5.38;;
81908;SDS011;71372;43.514;1.512;2023-12-28T10:50:03;7.35;;;5.75;;
81908;SDS011;71372;43.514;1.512;2023-12-28T10:52:33;10.52;;;5.25;;
81908;SDS011;71372;43.514;1.512;2023-12-28T11:00:24;9.48;;;5.55;;
81908;SDS011;71372;43.514;1.512;2023-12-28T11:02:52;9.27;;;5.22;;
81908;SDS011;71372;43.514;1.512;2023-12-28T11:05:21;9.30;;;5.45;;
81908;SDS011;71372;43.514;1.512;2023-12-28T11:07:49;6.68;;;5.15;;
81908;SDS011;71372;43.514;1.512;2023-12-28T11:10:19;13.48;;;5.05;;
81908;SDS011;71372;43.514;1.512;2023-12-28T11:12:49;9.77;;;5.72;;
81908;SDS011;71372;43.514;1.512;2023-12-28T11:15:17;7.90;;;5.45;;
81908;SDS011;71372;43.514;1.512;2023-12-28T11:17:44;9.65;;;4.75;;
81908;SDS011;71372;43.514;1.512;2023-12-28T11:20:10;8.90;;;4.78;;
81908;SDS011;71372;43.514;1.512;2023-12-28T11:22:37;10.35;;;5.45;;
81908;SDS011;71372;43.514;1.512;2023-12-28T11:25:04;11.32;;;6.50;;
81908;SDS011;71372;43.514;1.512;2023-12-28T11:27:36;8.07;;;5.40;;
81908;SDS011;71372;43.514;1.512;2023-12-28T11:30:05;10.25;;;5.30;;
81908;SDS011;71372;43.514;1.512;2023-12-28T11:32:32;8.27;;;5.13;;
81908;SDS011;71372;43.514;1.512;2023-12-28T11:34:59;8.60;;;4.90;;
81908;SDS011;71372;43.514;1.512;2023-12-28T11:37:26;9.00;;;5.10;;
81908;SDS011;71372;43.514;1.512;2023-12-28T11:39:53;8.88;;;4.57;;
81908;SDS011;71372;43.514;1.512;2023-12-28T11:42:20;9.30;;;4.75;;
81908;SDS011;71372;43.514;1.512;2023-12-28T11:44:53;7.65;;;4.57;;
81908;SDS011;71372;43.514;1.512;2023-12-28T11:47:22;10.15;;;5.80;;
81908;SDS011;71372;43.514;1.512;2023-12-28T11:49:49;8.45;;;5.05;;
81908;SDS011;71372;43.514;1.512;2023-12-28T11:54:49;7.22;;;5.10;;
81908;SDS011;71372;43.514;1.512;2023-12-28T11:57:16;8.00;;;5.50;;
81908;SDS011;71372;43.514;1.512;2023-12-28T11:59:42;11.13;;;5.53;;
81908;SDS011;71372;43.514;1.512;2023-12-28T12:02:09;8.85;;;4.95;;
81908;SDS011;71372;43.514;1.512;2023-12-28T12:04:36;9.55;;;5.30;;
81908;SDS011;71372;43.514;1.512;2023-12-28T12:07:03;9.35;;;5.93;;
81908;SDS011;71372;43.514;1.512;2023-12-28T12:09:30;7.68;;;4.90;;
81908;SDS011;71372;43.514;1.512;2023-12-28T12:12:03;7.95;;;5.22;;
81908;SDS011;71372;43.514;1.512;2023-12-28T12:14:30;6.70;;;4.95;;
81908;SDS011;71372;43.514;1.512;2023-12-28T12:16:56;8.35;;;5.53;;
81908;SDS011;71372;43.514;1.512;2023-12-28T12:19:24;6.63;;;5.47;;
81908;SDS011;71372;43.514;1.512;2023-12-28T12:21:52;8.82;;;5.45;;
81908;SDS011;71372;43.514;1.512;2023-12-28T12:24:18;9.45;;;5.03;;
81908;SDS011;71372;43.514;1.512;2023-12-28T12:26:48;7.15;;;4.85;;
81908;SDS011;71372;43.514;1.512;2023-12-28T12:29:15;11.23;;;5.75;;
81908;SDS011;71372;43.514;1.512;2023-12-28T12:31:41;7.40;;;4.75;;
81908;SDS011;71372;43.514;1.512;2023-12-28T12:34:08;8.32;;;5.53;;
81908;SDS011;71372;43.514;1.512;2023-12-28T12:36:35;6.70;;;5.28;;
81908;SDS011;71372;43.514;1.512;2023-12-28T12:39:02;7.80;;;4.97;;
81908;SDS011;71372;43.514;1.512;2023-12-28T12:41:32;6.90;;;4.93;;
81908;SDS011;71372;43.514;1.512;2023-12-28T12:43:59;8.48;;;4.78;;
81908;SDS011;71372;43.514;1.512;2023-12-28T12:46:26;8.40;;;5.22;;
81908;SDS011;71372;43.514;1.512;2023-12-28T12:48:55;8.63;;;5.28;;
81908;SDS011;71372;43.514;1.512;2023-12-28T12:51:22;7.50;;;5.50;;
81908;SDS011;71372;43.514;1.512;2023-12-28T12:53:48;8.00;;;4.78;;
81908;SDS011;71372;43.514;1.512;2023-12-28T12:56:14;6.70;;;5.00;;
81908;SDS011;71372;43.514;1.512;2023-12-28T12:58:40;7.93;;;4.90;;
81908;SDS011;71372;43.514;1.512;2023-12-28T13:01:09;9.60;;;4.80;;
81908;SDS011;71372;43.514;1.512;2023-12-28T13:03:37;6.65;;;4.32;;
81908;SDS011;71372;43.514;1.512;2023-12-28T13:06:04;10.10;;;4.95;;
81908;SDS011;71372;43.514;1.512;2023-12-28T13:08:30;6.65;;;4.55;;
81908;SDS011;71372;43.514;1.512;2023-12-28T13:10:55;7.30;;;4.75;;
81908;SDS011;71372;43.514;1.512;2023-12-28T13:13:21;8.52;;;4.15;;
81908;SDS011;71372;43.514;1.512;2023-12-28T13:15:47;7.82;;;4.95;;
81908;SDS011;71372;43.514;1.512;2023-12-28T13:18:14;7.45;;;5.10;;
81908;SDS011;71372;43.514;1.512;2023-12-28T13:20:40;8.10;;;5.30;;
81908;SDS011;71372;43.514;1.512;2023-12-28T13:23:08;9.93;;;4.95;;
81908;SDS011;71372;43.514;1.512;2023-12-28T13:25:34;6.22;;;4.72;;
81908;SDS011;71372;43.514;1.512;2023-12-28T13:28:00;5.90;;;4.72;;
81908;SDS011;71372;43.514;1.512;2023-12-28T13:30:26;7.43;;;4.95;;
81908;SDS011;71372;43.514;1.512;2023-12-28T13:32:56;8.48;;;4.65;;
81908;SDS011;71372;43.514;1.512;2023-12-28T13:35:22;6.50;;;4.80;;
81908;SDS011;71372;43.514;1.512;2023-12-28T13:37:49;7.82;;;4.63;;
81908;SDS011;71372;43.514;1.512;2023-12-28T13:40:15;6.47;;;5.00;;
81908;SDS011;71372;43.514;1.512;2023-12-28T13:42:41;8.48;;;5.30;;
81908;SDS011;71372;43.514;1.512;2023-12-28T13:45:07;11.25;;;5.38;;
81908;SDS011;71372;43.514;1.512;2023-12-28T13:47:33;6.78;;;4.60;;
81908;SDS011;71372;43.514;1.512;2023-12-28T13:49:59;7.20;;;5.10;;
81908;SDS011;71372;43.514;1.512;2023-12-28T13:52:25;9.32;;;5.03;;
81908;SDS011;71372;43.514;1.512;2023-12-28T13:54:51;7.85;;;4.70;;
81908;SDS011;71372;43.514;1.512;2023-12-28T13:57:17;6.50;;;4.35;;
81908;SDS011;71372;43.514;1.512;2023-12-28T13:59:43;7.68;;;4.40;;
81908;SDS011;71372;43.514;1.512;2023-12-28T14:02:09;8.05;;;5.18;;
81908;SDS011;71372;43.514;1.512;2023-12-28T14:04:35;7.55;;;5.40;;
81908;SDS011;71372;43.514;1.512;2023-12-28T14:07:01;11.00;;;5.22;;
81908;SDS011;71372;43.514;1.512;2023-12-28T14:09:28;8.55;;;4.95;;
81908;SDS011;71372;43.514;1.512;2023-12-28T14:11:54;7.05;;;4.82;;
81908;SDS011;71372;43.514;1.512;2023-12-28T14:14:20;6.28;;;4.57;;
81908;SDS011;71372;43.514;1.512;2023-12-28T14:16:46;8.15;;;5.00;;
81908;SDS011;71372;43.514;1.512;2023-12-28T14:19:12;8.55;;;4.43;;
81908;SDS011;71372;43.514;1.512;2023-12-28T14:21:38;8.27;;;4.78;;
81908;SDS011;71372;43.514;1.512;2023-12-28T14:24:04;6.78;;;4.55;;
81908;SDS011;71372;43.514;1.512;2023-12-28T14:26:34;9.35;;;5.00;;
81908;SDS011;71372;43.514;1.512;2023-12-28T14:29:05;8.10;;;5.30;;
81908;SDS011;71372;43.514;1.512;2023-12-28T14:31:32;10.55;;;5.15;;
81908;SDS011;71372;43.514;1.512;2023-12-28T14:33:58;8.32;;;4.78;;
81908;SDS011;71372;43.514;1.512;2023-12-28T14:36:29;7.57;;;4.53;;
81908;SDS011;71372;43.514;1.512;2023-12-28T14:38:59;7.20;;;4.40;;
81908;SDS011;71372;43.514;1.512;2023-12-28T14:41:29;7.43;;;4.75;;
81908;SDS011;71372;43.514;1.512;2023-12-28T14:43:55;8.07;;;5.15;;
81908;SDS011;71372;43.514;1.512;2023-12-28T14:46:23;8.18;;;4.60;;
81908;SDS011;71372;43.514;1.512;2023-12-28T14:48:50;8.30;;;4.85;;
81908;SDS011;71372;43.514;1.512;2023-12-28T14:51:16;8.20;;;4.70;;